sensor_id;sensor_type;location;lat;lon;timestamp;temperature;humidity
35343;DHT22;21449;48.146;11.594;2022-09-13T05:37:13;21.50;96.20
35343;DHT22;21449;48.146;11.594;2022-09-13T05:41:15;12.60;99.90
35343;DHT22;21449;48.146;11.594;2022-09-13T05:45:17;12.40;99.90
35343;DHT22;21449;48.146;11.594;2022-09-13T05:49:19;12.50;99.90
35343;DHT22;21449;48.146;11.594;2022-09-13T05:53:24;12.60;99.90
35343;DHT22;21449;48.146;11.594;2022-09-13T05:57:26;12.70;99.90
35343;DHT22;21449;48.146;11.594;2022-09-13T06:01:28;12.80;99.90
35343;DHT22;21449;48.146;11.594;2022-09-13T06:05:31;12.90;99.90
35343;DHT22;21449;48.146;11.594;2022-09-13T06:09:35;13.00;99.90
35343;DHT22;21449;48.146;11.594;2022-09-13T06:13:38;13.20;99.90
35343;DHT22;21449;48.146;11.594;2022-09-13T06:17:40;13.50;99.90
35343;DHT22;21449;48.146;11.594;2022-09-13T06:21:42;13.70;99.90
35343;DHT22;21449;48.146;11.594;2022-09-13T06:25:47;13.80;99.90
35343;DHT22;21449;48.146;11.594;2022-09-13T06:29:49;14.00;99.90
35343;DHT22;21449;48.146;11.594;2022-09-13T06:33:55;14.40;99.90
35343;DHT22;21449;48.146;11.594;2022-09-13T06:37:57;14.60;99.90
35343;DHT22;21449;48.146;11.594;2022-09-13T06:42:02;14.90;99.90
35343;DHT22;21449;48.146;11.594;2022-09-13T06:46:06;14.90;99.90
35343;DHT22;21449;48.146;11.594;2022-09-13T06:50:08;15.10;99.90
35343;DHT22;21449;48.146;11.594;2022-09-13T06:54:11;15.30;99.90
35343;DHT22;21449;48.146;11.594;2022-09-13T06:58:15;15.50;99.90
35343;DHT22;21449;48.146;11.594;2022-09-13T07:02:17;15.80;99.90
35343;DHT22;21449;48.146;11.594;2022-09-13T07:06:21;16.00;99.90
35343;DHT22;21449;48.146;11.594;2022-09-13T07:10:24;16.30;99.90
35343;DHT22;21449;48.146;11.594;2022-09-13T07:14:29;16.60;99.90
35343;DHT22;21449;48.146;11.594;2022-09-13T07:18:31;16.80;99.90
35343;DHT22;21449;48.146;11.594;2022-09-13T07:22:33;17.10;99.90
35343;DHT22;21449;48.146;11.594;2022-09-13T07:26:35;17.40;99.90
35343;DHT22;21449;48.146;11.594;2022-09-13T07:30:40;17.80;99.90
35343;DHT22;21449;48.146;11.594;2022-09-13T07:34:42;18.10;99.90
35343;DHT22;21449;48.146;11.594;2022-09-13T07:38:44;18.40;99.90
35343;DHT22;21449;48.146;11.594;2022-09-13T07:42:46;18.80;99.90
35343;DHT22;21449;48.146;11.594;2022-09-13T07:46:50;19.10;99.90
35343;DHT22;21449;48.146;11.594;2022-09-13T07:51:00;19.40;99.90
35343;DHT22;21449;48.146;11.594;2022-09-13T07:55:03;19.60;99.90
35343;DHT22;21449;48.146;11.594;2022-09-13T07:59:07;19.80;99.90
35343;DHT22;21449;48.146;11.594;2022-09-13T08:03:14;20.10;99.90
35343;DHT22;21449;48.146;11.594;2022-09-13T08:07:16;20.50;99.90
35343;DHT22;21449;48.146;11.594;2022-09-13T08:11:19;20.90;99.90
35343;DHT22;21449;48.146;11.594;2022-09-13T08:15:21;21.10;99.90
35343;DHT22;21449;48.146;11.594;2022-09-13T08:19:26;21.60;99.90
35343;DHT22;21449;48.146;11.594;2022-09-13T08:23:28;22.00;97.40
35343;DHT22;21449;48.146;11.594;2022-09-13T08:27:30;22.30;98.30
35343;DHT22;21449;48.146;11.594;2022-09-13T08:31:33;22.30;92.80
35343;DHT22;21449;48.146;11.594;2022-09-13T08:35:38;22.10;92.10
35343;DHT22;21449;48.146;11.594;2022-09-13T08:39:40;22.10;93.60
35343;DHT22;21449;48.146;11.594;2022-09-13T08:43:47;22.30;94.70
35343;DHT22;21449;48.146;11.594;2022-09-13T08:47:53;22.70;95.80
35343;DHT22;21449;48.146;11.594;2022-09-13T08:52:04;22.70;92.80
35343;DHT22;21449;48.146;11.594;2022-09-13T08:56:18;22.60;93.00
35343;DHT22;21449;48.146;11.594;2022-09-13T09:00:25;22.80;94.70
35343;DHT22;21449;48.146;11.594;2022-09-13T09:04:37;22.80;93.80
35343;DHT22;21449;48.146;11.594;2022-09-13T09:08:44;23.20;94.60
35343;DHT22;21449;48.146;11.594;2022-09-13T09:12:51;23.50;93.00
35343;DHT22;21449;48.146;11.594;2022-09-13T09:16:56;23.50;91.80
35343;DHT22;21449;48.146;11.594;2022-09-13T09:21:00;23.30;91.80
35343;DHT22;21449;48.146;11.594;2022-09-13T09:25:07;23.70;91.70
35343;DHT22;21449;48.146;11.594;2022-09-13T09:29:16;23.60;90.50
35343;DHT22;21449;48.146;11.594;2022-09-13T09:42:27;24.00;87.90
35343;DHT22;21449;48.146;11.594;2022-09-13T09:46:33;24.00;88.60
35343;DHT22;21449;48.146;11.594;2022-09-13T09:50:39;24.00;87.60
35343;DHT22;21449;48.146;11.594;2022-09-13T09:54:45;24.00;89.20
35343;DHT22;21449;48.146;11.594;2022-09-13T09:58:52;24.30;88.70
35343;DHT22;21449;48.146;11.594;2022-09-13T10:02:57;24.20;86.30
35343;DHT22;21449;48.146;11.594;2022-09-13T10:07:30;24.40;87.60
35343;DHT22;21449;48.146;11.594;2022-09-13T10:11:47;24.70;88.30
35343;DHT22;21449;48.146;11.594;2022-09-13T23:01:43;25.10;86.40
35343;DHT22;21449;48.146;11.594;2022-09-13T23:05:49;17.80;99.90
35343;DHT22;21449;48.146;11.594;2022-09-13T23:09:51;17.40;99.90
35343;DHT22;21449;48.146;11.594;2022-09-13T23:13:56;17.30;99.90
35343;DHT22;21449;48.146;11.594;2022-09-13T23:18:01;17.40;99.90
35343;DHT22;21449;48.146;11.594;2022-09-13T23:22:03;17.30;99.90
35343;DHT22;21449;48.146;11.594;2022-09-13T23:26:07;17.30;99.90
35343;DHT22;21449;48.146;11.594;2022-09-13T23:30:10;17.30;99.90
35343;DHT22;21449;48.146;11.594;2022-09-13T23:34:15;17.30;99.90
35343;DHT22;21449;48.146;11.594;2022-09-13T23:38:17;17.20;99.90
35343;DHT22;21449;48.146;11.594;2022-09-13T23:42:19;17.10;99.90
35343;DHT22;21449;48.146;11.594;2022-09-13T23:46:21;17.10;99.90
35343;DHT22;21449;48.146;11.594;2022-09-13T23:50:26;17.10;99.90
35343;DHT22;21449;48.146;11.594;2022-09-13T23:54:28;17.10;99.90
35343;DHT22;21449;48.146;11.594;2022-09-13T23:58:30;17.00;99.90
